sensor_id;sensor_type;location;lat;lon;timestamp;temperature;humidity
7204;DHT22;3643;52.460;13.322;2023-03-23T00:02:08;11.40;99.90
7204;DHT22;3643;52.460;13.322;2023-03-23T00:04:35;11.40;99.90
7204;DHT22;3643;52.460;13.322;2023-03-23T00:07:04;11.40;99.90
7204;DHT22;3643;52.460;13.322;2023-03-23T00:09:31;11.40;99.90
7204;DHT22;3643;52.460;13.322;2023-03-23T00:12:00;11.30;99.90
7204;DHT22;3643;52.460;13.322;2023-03-23T00:14:32;11.40;99.90
7204;DHT22;3643;52.460;13.322;2023-03-23T00:17:07;11.50;99.90
7204;DHT22;3643;52.460;13.322;2023-03-23T00:19:37;11.50;99.90
7204;DHT22;3643;52.460;13.322;2023-03-23T00:22:13;11.50;99.90
7204;DHT22;3643;52.460;13.322;2023-03-23T00:24:43;11.40;99.90
7204;DHT22;3643;52.460;13.322;2023-03-23T00:27:11;11.30;99.90
7204;DHT22;3643;52.460;13.322;2023-03-23T00:29:40;11.20;99.90
7204;DHT22;3643;52.460;13.322;2023-03-23T00:32:08;11.20;99.90
7204;DHT22;3643;52.460;13.322;2023-03-23T00:34:38;11.10;99.90
7204;DHT22;3643;52.460;13.322;2023-03-23T00:37:07;11.00;99.90
7204;DHT22;3643;52.460;13.322;2023-03-23T00:39:38;10.90;99.90
7204;DHT22;3643;52.460;13.322;2023-03-23T00:42:13;10.90;99.90
7204;DHT22;3643;52.460;13.322;2023-03-23T00:44:42;10.80;99.90
7204;DHT22;3643;52.460;13.322;2023-03-23T00:47:11;10.80;99.90
7204;DHT22;3643;52.460;13.322;2023-03-23T00:49:40;10.70;99.90
7204;DHT22;3643;52.460;13.322;2023-03-23T00:52:07;10.70;99.90
7204;DHT22;3643;52.460;13.322;2023-03-23T00:54:36;10.70;99.90
7204;DHT22;3643;52.460;13.322;2023-03-23T00:57:04;10.70;99.90
7204;DHT22;3643;52.460;13.322;2023-03-23T00:59:31;10.70;99.90
7204;DHT22;3643;52.460;13.322;2023-03-23T01:01:58;10.80;99.90
7204;DHT22;3643;52.460;13.322;2023-03-23T01:04:26;10.90;99.90
7204;DHT22;3643;52.460;13.322;2023-03-23T01:06:58;10.90;99.90
7204;DHT22;3643;52.460;13.322;2023-03-23T01:09:26;10.90;99.90
7204;DHT22;3643;52.460;13.322;2023-03-23T01:11:55;10.50;99.90
7204;DHT22;3643;52.460;13.322;2023-03-23T01:14:23;10.90;99.90
7204;DHT22;3643;52.460;13.322;2023-03-23T01:16:51;10.80;99.90
7204;DHT22;3643;52.460;13.322;2023-03-23T01:19:18;10.70;99.90
7204;DHT22;3643;52.460;13.322;2023-03-23T01:21:46;10.70;99.90
7204;DHT22;3643;52.460;13.322;2023-03-23T01:24:13;10.60;99.90
7204;DHT22;3643;52.460;13.322;2023-03-23T01:26:40;10.60;99.90
7204;DHT22;3643;52.460;13.322;2023-03-23T01:29:09;10.50;99.90
7204;DHT22;3643;52.460;13.322;2023-03-23T01:31:36;10.50;99.90
7204;DHT22;3643;52.460;13.322;2023-03-23T01:34:04;10.50;99.90
7204;DHT22;3643;52.460;13.322;2023-03-23T01:36:32;10.50;99.90
7204;DHT22;3643;52.460;13.322;2023-03-23T01:39:00;10.60;99.90
7204;DHT22;3643;52.460;13.322;2023-03-23T01:41:30;10.50;99.90
7204;DHT22;3643;52.460;13.322;2023-03-23T01:44:00;10.50;99.90
7204;DHT22;3643;52.460;13.322;2023-03-23T01:46:32;10.40;99.90
7204;DHT22;3643;52.460;13.322;2023-03-23T01:49:03;10.30;99.90
7204;DHT22;3643;52.460;13.322;2023-03-23T01:51:37;10.30;99.90
7204;DHT22;3643;52.460;13.322;2023-03-23T01:54:08;10.20;99.90
7204;DHT22;3643;52.460;13.322;2023-03-23T01:56:41;10.30;99.90
7204;DHT22;3643;52.460;13.322;2023-03-23T01:59:11;10.40;99.90
7204;DHT22;3643;52.460;13.322;2023-03-23T02:01:40;10.40;99.90
7204;DHT22;3643;52.460;13.322;2023-03-23T02:04:12;10.40;99.90
7204;DHT22;3643;52.460;13.322;2023-03-23T02:06:40;10.40;99.90
7204;DHT22;3643;52.460;13.322;2023-03-23T02:09:08;10.40;99.90
7204;DHT22;3643;52.460;13.322;2023-03-23T02:11:36;10.40;99.90
7204;DHT22;3643;52.460;13.322;2023-03-23T02:14:03;10.40;99.90
7204;DHT22;3643;52.460;13.322;2023-03-23T02:16:36;10.50;99.90
7204;DHT22;3643;52.460;13.322;2023-03-23T02:19:30;10.50;99.90
7204;DHT22;3643;52.460;13.322;2023-03-23T02:22:24;10.50;99.90
7204;DHT22;3643;52.460;13.322;2023-03-23T02:25:09;10.60;99.90
7204;DHT22;3643;52.460;13.322;2023-03-23T02:34:08;10.70;99.90
7204;DHT22;3643;52.460;13.322;2023-03-23T02:36:40;10.80;99.90
7204;DHT22;3643;52.460;13.322;2023-03-23T02:39:14;10.90;99.90
7204;DHT22;3643;52.460;13.322;2023-03-23T02:41:47;11.00;99.90
7204;DHT22;3643;52.460;13.322;2023-03-23T02:44:17;11.00;99.90
7204;DHT22;3643;52.460;13.322;2023-03-23T02:46:45;11.10;99.90
7204;DHT22;3643;52.460;13.322;2023-03-23T02:49:16;11.10;99.90
7204;DHT22;3643;52.460;13.322;2023-03-23T02:51:46;11.00;99.90
7204;DHT22;3643;52.460;13.322;2023-03-23T02:54:15;10.90;99.90
7204;DHT22;3643;52.460;13.322;2023-03-23T02:56:45;10.90;99.90
7204;DHT22;3643;52.460;13.322;2023-03-23T02:59:12;10.80;99.90
7204;DHT22;3643;52.460;13.322;2023-03-23T03:01:51;10.80;99.90
7204;DHT22;3643;52.460;13.322;2023-03-23T03:04:23;10.70;99.90
7204;DHT22;3643;52.460;13.322;2023-03-23T03:07:17;10.70;99.90
7204;DHT22;3643;52.460;13.322;2023-03-23T03:09:55;10.70;99.90
7204;DHT22;3643;52.460;13.322;2023-03-23T03:12:29;10.70;99.90
7204;DHT22;3643;52.460;13.322;2023-03-23T03:15:05;10.70;99.90
7204;DHT22;3643;52.460;13.322;2023-03-23T03:17:35;10.80;99.90
7204;DHT22;3643;52.460;13.322;2023-03-23T03:20:08;10.80;99.90
7204;DHT22;3643;52.460;13.322;2023-03-23T03:22:38;10.80;99.90
7204;DHT22;3643;52.460;13.322;2023-03-23T03:25:10;10.80;99.90
7204;DHT22;3643;52.460;13.322;2023-03-23T03:27:41;10.80;99.90
7204;DHT22;3643;52.460;13.322;2023-03-23T03:30:13;10.80;99.90
7204;DHT22;3643;52.460;13.322;2023-03-23T03:32:46;10.80;99.90
7204;DHT22;3643;52.460;13.322;2023-03-23T03:35:16;10.80;99.90
7204;DHT22;3643;52.460;13.322;2023-03-23T03:37:44;10.90;99.90
7204;DHT22;3643;52.460;13.322;2023-03-23T03:40:14;10.80;99.90
7204;DHT22;3643;52.460;13.322;2023-03-23T03:42:43;10.90;99.90
7204;DHT22;3643;52.460;13.322;2023-03-23T03:45:15;10.90;99.90
7204;DHT22;3643;52.460;13.322;2023-03-23T03:47:43;10.90;99.90
7204;DHT22;3643;52.460;13.322;2023-03-23T03:50:10;10.90;99.90
7204;DHT22;3643;52.460;13.322;2023-03-23T03:52:39;10.90;99.90
7204;DHT22;3643;52.460;13.322;2023-03-23T03:55:08;10.80;99.90
7204;DHT22;3643;52.460;13.322;2023-03-23T03:57:36;10.80;99.90
7204;DHT22;3643;52.460;13.322;2023-03-23T04:00:05;10.70;99.90
7204;DHT22;3643;52.460;13.322;2023-03-23T04:02:40;10.70;99.90
7204;DHT22;3643;52.460;13.322;2023-03-23T04:05:08;10.70;99.90
7204;DHT22;3643;52.460;13.322;2023-03-23T04:07:36;10.70;99.90
7204;DHT22;3643;52.460;13.322;2023-03-23T04:10:09;10.60;99.90
7204;DHT22;3643;52.460;13.322;2023-03-23T04:12:37;10.60;99.90
7204;DHT22;3643;52.460;13.322;2023-03-23T04:15:05;10.60;99.90
7204;DHT22;3643;52.460;13.322;2023-03-23T04:17:33;10.60;99.90
7204;DHT22;3643;52.460;13.322;2023-03-23T04:20:02;10.60;99.90
7204;DHT22;3643;52.460;13.322;2023-03-23T04:22:33;10.60;99.90
7204;DHT22;3643;52.460;13.322;2023-03-23T04:25:01;10.60;99.90
7204;DHT22;3643;52.460;13.322;2023-03-23T04:27:33;10.60;99.90
7204;DHT22;3643;52.460;13.322;2023-03-23T04:30:02;10.60;99.90
7204;DHT22;3643;52.460;13.322;2023-03-23T04:32:30;10.60;99.90
7204;DHT22;3643;52.460;13.322;2023-03-23T04:34:58;10.60;99.90
7204;DHT22;3643;52.460;13.322;2023-03-23T04:37:27;10.60;99.90
7204;DHT22;3643;52.460;13.322;2023-03-23T04:39:55;10.60;99.90
7204;DHT22;3643;52.460;13.322;2023-03-23T04:42:28;10.60;99.90
7204;DHT22;3643;52.460;13.322;2023-03-23T04:44:57;10.60;99.90
7204;DHT22;3643;52.460;13.322;2023-03-23T04:47:26;10.50;99.90
7204;DHT22;3643;52.460;13.322;2023-03-23T04:49:55;10.50;99.90
7204;DHT22;3643;52.460;13.322;2023-03-23T04:52:24;10.50;99.90
7204;DHT22;3643;52.460;13.322;2023-03-23T04:54:52;10.50;99.90
7204;DHT22;3643;52.460;13.322;2023-03-23T04:57:19;10.40;99.90
7204;DHT22;3643;52.460;13.322;2023-03-23T04:59:47;10.50;99.90
7204;DHT22;3643;52.460;13.322;2023-03-23T05:02:16;10.40;99.90
7204;DHT22;3643;52.460;13.322;2023-03-23T05:04:44;10.40;99.90
7204;DHT22;3643;52.460;13.322;2023-03-23T05:07:12;10.50;99.90
7204;DHT22;3643;52.460;13.322;2023-03-23T05:09:39;10.40;99.90
7204;DHT22;3643;52.460;13.322;2023-03-23T05:12:09;10.40;99.90
7204;DHT22;3643;52.460;13.322;2023-03-23T05:14:40;10.30;99.90
7204;DHT22;3643;52.460;13.322;2023-03-23T05:17:08;10.20;99.90
7204;DHT22;3643;52.460;13.322;2023-03-23T05:19:37;10.20;99.90
7204;DHT22;3643;52.460;13.322;2023-03-23T05:22:07;10.10;99.90
7204;DHT22;3643;52.460;13.322;2023-03-23T05:24:35;10.10;99.90
7204;DHT22;3643;52.460;13.322;2023-03-23T05:27:02;10.10;99.90
7204;DHT22;3643;52.460;13.322;2023-03-23T05:29:30;10.10;99.90
7204;DHT22;3643;52.460;13.322;2023-03-23T05:31:57;10.10;99.90
7204;DHT22;3643;52.460;13.322;2023-03-23T05:34:25;10.00;99.90
7204;DHT22;3643;52.460;13.322;2023-03-23T05:36:56;10.00;99.90
7204;DHT22;3643;52.460;13.322;2023-03-23T05:39:23;10.00;99.90
7204;DHT22;3643;52.460;13.322;2023-03-23T05:41:52;9.90;99.90
7204;DHT22;3643;52.460;13.322;2023-03-23T05:44:20;9.90;99.90
7204;DHT22;3643;52.460;13.322;2023-03-23T05:46:47;9.90;99.90
7204;DHT22;3643;52.460;13.322;2023-03-23T05:49:16;9.80;99.90
7204;DHT22;3643;52.460;13.322;2023-03-23T05:51:43;9.80;99.90
7204;DHT22;3643;52.460;13.322;2023-03-23T05:54:13;9.70;99.90
7204;DHT22;3643;52.460;13.322;2023-03-23T05:56:41;9.70;99.90
7204;DHT22;3643;52.460;13.322;2023-03-23T05:59:08;9.60;99.90
7204;DHT22;3643;52.460;13.322;2023-03-23T06:01:36;9.60;99.90
7204;DHT22;3643;52.460;13.322;2023-03-23T06:04:03;9.60;99.90
7204;DHT22;3643;52.460;13.322;2023-03-23T06:06:30;9.60;99.90
7204;DHT22;3643;52.460;13.322;2023-03-23T06:08:58;9.60;99.90
7204;DHT22;3643;52.460;13.322;2023-03-23T06:11:26;9.60;99.90
7204;DHT22;3643;52.460;13.322;2023-03-23T06:13:54;9.60;99.90
7204;DHT22;3643;52.460;13.322;2023-03-23T06:16:21;9.60;99.90
7204;DHT22;3643;52.460;13.322;2023-03-23T06:18:48;9.10;99.90
7204;DHT22;3643;52.460;13.322;2023-03-23T06:21:16;9.60;99.90
7204;DHT22;3643;52.460;13.322;2023-03-23T06:23:44;9.60;99.90
7204;DHT22;3643;52.460;13.322;2023-03-23T06:26:13;9.60;99.90
7204;DHT22;3643;52.460;13.322;2023-03-23T06:28:43;9.70;99.90
7204;DHT22;3643;52.460;13.322;2023-03-23T06:31:10;9.70;99.90
7204;DHT22;3643;52.460;13.322;2023-03-23T06:33:38;9.70;99.90
7204;DHT22;3643;52.460;13.322;2023-03-23T06:36:07;9.70;99.90
7204;DHT22;3643;52.460;13.322;2023-03-23T06:38:36;9.70;99.90
7204;DHT22;3643;52.460;13.322;2023-03-23T06:41:04;9.70;99.90
7204;DHT22;3643;52.460;13.322;2023-03-23T06:43:31;9.80;99.90
7204;DHT22;3643;52.460;13.322;2023-03-23T06:46:00;9.80;99.90
7204;DHT22;3643;52.460;13.322;2023-03-23T06:48:27;9.80;99.90
7204;DHT22;3643;52.460;13.322;2023-03-23T06:50:55;9.80;99.90
7204;DHT22;3643;52.460;13.322;2023-03-23T06:53:22;9.90;99.90
7204;DHT22;3643;52.460;13.322;2023-03-23T06:55:49;10.00;99.90
7204;DHT22;3643;52.460;13.322;2023-03-23T06:58:16;9.90;99.90
7204;DHT22;3643;52.460;13.322;2023-03-23T07:00:44;10.00;99.90
7204;DHT22;3643;52.460;13.322;2023-03-23T07:03:12;9.90;99.90
7204;DHT22;3643;52.460;13.322;2023-03-23T07:05:40;9.90;99.90
7204;DHT22;3643;52.460;13.322;2023-03-23T07:08:07;9.90;99.90
7204;DHT22;3643;52.460;13.322;2023-03-23T07:10:34;9.90;99.90
7204;DHT22;3643;52.460;13.322;2023-03-23T07:13:01;9.90;99.90
7204;DHT22;3643;52.460;13.322;2023-03-23T07:15:28;10.00;99.90
7204;DHT22;3643;52.460;13.322;2023-03-23T07:17:56;10.00;99.90
7204;DHT22;3643;52.460;13.322;2023-03-23T07:20:25;10.00;99.90
7204;DHT22;3643;52.460;13.322;2023-03-23T07:22:53;10.00;99.90
7204;DHT22;3643;52.460;13.322;2023-03-23T07:25:21;10.00;99.90
7204;DHT22;3643;52.460;13.322;2023-03-23T07:27:48;10.00;99.90
7204;DHT22;3643;52.460;13.322;2023-03-23T07:30:15;10.00;99.90
7204;DHT22;3643;52.460;13.322;2023-03-23T07:32:42;10.20;99.90
7204;DHT22;3643;52.460;13.322;2023-03-23T07:35:10;10.20;99.90
7204;DHT22;3643;52.460;13.322;2023-03-23T07:37:39;10.10;99.90
7204;DHT22;3643;52.460;13.322;2023-03-23T07:40:08;10.10;99.90
7204;DHT22;3643;52.460;13.322;2023-03-23T07:42:35;10.10;99.90
7204;DHT22;3643;52.460;13.322;2023-03-23T07:45:03;10.10;99.90
7204;DHT22;3643;52.460;13.322;2023-03-23T07:47:30;10.10;99.90
7204;DHT22;3643;52.460;13.322;2023-03-23T07:49:57;10.10;99.90
7204;DHT22;3643;52.460;13.322;2023-03-23T07:52:24;10.10;99.90
7204;DHT22;3643;52.460;13.322;2023-03-23T07:54:52;10.20;99.90
7204;DHT22;3643;52.460;13.322;2023-03-23T07:57:19;10.10;99.90
7204;DHT22;3643;52.460;13.322;2023-03-23T07:59:47;10.20;99.90
7204;DHT22;3643;52.460;13.322;2023-03-23T08:02:14;10.10;99.90
7204;DHT22;3643;52.460;13.322;2023-03-23T08:04:41;10.20;99.90
7204;DHT22;3643;52.460;13.322;2023-03-23T08:07:10;10.30;99.90
7204;DHT22;3643;52.460;13.322;2023-03-23T08:09:38;10.50;99.90
7204;DHT22;3643;52.460;13.322;2023-03-23T08:12:06;10.40;99.90
7204;DHT22;3643;52.460;13.322;2023-03-23T08:14:34;10.50;99.90
7204;DHT22;3643;52.460;13.322;2023-03-23T08:17:01;10.60;99.90
7204;DHT22;3643;52.460;13.322;2023-03-23T08:19:28;10.60;99.90
7204;DHT22;3643;52.460;13.322;2023-03-23T08:21:55;10.60;99.90
7204;DHT22;3643;52.460;13.322;2023-03-23T08:24:22;10.70;99.90
7204;DHT22;3643;52.460;13.322;2023-03-23T08:26:50;10.70;99.90
7204;DHT22;3643;52.460;13.322;2023-03-23T08:29:18;10.80;99.90
7204;DHT22;3643;52.460;13.322;2023-03-23T08:31:45;10.90;99.90
7204;DHT22;3643;52.460;13.322;2023-03-23T08:34:13;10.90;99.90
7204;DHT22;3643;52.460;13.322;2023-03-23T08:36:41;10.90;99.90
7204;DHT22;3643;52.460;13.322;2023-03-23T08:39:09;10.70;99.90
7204;DHT22;3643;52.460;13.322;2023-03-23T08:41:37;10.60;99.90
7204;DHT22;3643;52.460;13.322;2023-03-23T08:44:04;10.60;99.90
7204;DHT22;3643;52.460;13.322;2023-03-23T08:46:33;10.50;99.90
7204;DHT22;3643;52.460;13.322;2023-03-23T08:49:00;11.00;99.90
7204;DHT22;3643;52.460;13.322;2023-03-23T08:51:27;10.70;99.90
7204;DHT22;3643;52.460;13.322;2023-03-23T08:53:54;11.00;99.90
7204;DHT22;3643;52.460;13.322;2023-03-23T08:56:21;11.30;99.90
7204;DHT22;3643;52.460;13.322;2023-03-23T08:58:48;11.40;99.90
7204;DHT22;3643;52.460;13.322;2023-03-23T09:01:16;11.30;99.90
7204;DHT22;3643;52.460;13.322;2023-03-23T09:03:45;11.40;99.90
7204;DHT22;3643;52.460;13.322;2023-03-23T09:06:12;11.50;99.90
7204;DHT22;3643;52.460;13.322;2023-03-23T09:08:39;11.70;99.90
7204;DHT22;3643;52.460;13.322;2023-03-23T09:11:08;11.90;99.90
7204;DHT22;3643;52.460;13.322;2023-03-23T09:13:36;12.10;99.90
7204;DHT22;3643;52.460;13.322;2023-03-23T09:16:04;12.10;99.90
7204;DHT22;3643;52.460;13.322;2023-03-23T09:18:32;12.20;99.90
7204;DHT22;3643;52.460;13.322;2023-03-23T09:21:03;12.00;99.90
7204;DHT22;3643;52.460;13.322;2023-03-23T09:23:30;11.90;99.90
7204;DHT22;3643;52.460;13.322;2023-03-23T09:26:00;11.80;99.90
7204;DHT22;3643;52.460;13.322;2023-03-23T09:28:27;11.90;99.90
7204;DHT22;3643;52.460;13.322;2023-03-23T09:30:55;12.10;99.90
7204;DHT22;3643;52.460;13.322;2023-03-23T09:33:23;11.90;99.90
7204;DHT22;3643;52.460;13.322;2023-03-23T09:35:51;12.10;99.90
7204;DHT22;3643;52.460;13.322;2023-03-23T09:38:20;12.10;99.90
7204;DHT22;3643;52.460;13.322;2023-03-23T09:40:48;12.20;99.90
7204;DHT22;3643;52.460;13.322;2023-03-23T09:43:28;12.40;99.90
7204;DHT22;3643;52.460;13.322;2023-03-23T09:46:06;12.30;99.90
7204;DHT22;3643;52.460;13.322;2023-03-23T09:48:46;12.70;99.90
7204;DHT22;3643;52.460;13.322;2023-03-23T09:51:25;12.60;99.90
7204;DHT22;3643;52.460;13.322;2023-03-23T09:53:59;12.70;99.90
7204;DHT22;3643;52.460;13.322;2023-03-23T09:56:30;12.90;99.90
7204;DHT22;3643;52.460;13.322;2023-03-23T09:59:02;13.10;99.90
7204;DHT22;3643;52.460;13.322;2023-03-23T10:01:36;13.40;99.90
7204;DHT22;3643;52.460;13.322;2023-03-23T10:04:09;13.40;99.90
7204;DHT22;3643;52.460;13.322;2023-03-23T10:06:38;13.70;99.90
7204;DHT22;3643;52.460;13.322;2023-03-23T10:09:08;13.40;99.90
7204;DHT22;3643;52.460;13.322;2023-03-23T10:11:49;13.30;99.90
7204;DHT22;3643;52.460;13.322;2023-03-23T10:14:28;13.40;99.90
7204;DHT22;3643;52.460;13.322;2023-03-23T10:17:07;13.20;99.90
7204;DHT22;3643;52.460;13.322;2023-03-23T10:19:46;12.90;99.90
7204;DHT22;3643;52.460;13.322;2023-03-23T10:22:17;12.80;99.90
7204;DHT22;3643;52.460;13.322;2023-03-23T10:24:51;12.80;99.90
7204;DHT22;3643;52.460;13.322;2023-03-23T10:27:25;12.90;99.90
7204;DHT22;3643;52.460;13.322;2023-03-23T10:29:57;13.00;99.90
7204;DHT22;3643;52.460;13.322;2023-03-23T10:32:39;13.00;99.90
7204;DHT22;3643;52.460;13.322;2023-03-23T10:35:13;13.20;99.90
7204;DHT22;3643;52.460;13.322;2023-03-23T10:37:44;13.60;99.90
7204;DHT22;3643;52.460;13.322;2023-03-23T10:40:17;13.10;99.90
7204;DHT22;3643;52.460;13.322;2023-03-23T10:42:46;13.10;99.90
7204;DHT22;3643;52.460;13.322;2023-03-23T10:45:17;13.20;99.90
7204;DHT22;3643;52.460;13.322;2023-03-23T10:47:48;13.20;99.90
7204;DHT22;3643;52.460;13.322;2023-03-23T10:50:18;13.20;99.90
7204;DHT22;3643;52.460;13.322;2023-03-23T10:52:50;13.50;99.90
7204;DHT22;3643;52.460;13.322;2023-03-23T10:55:20;13.60;99.90
7204;DHT22;3643;52.460;13.322;2023-03-23T10:57:59;13.40;99.90
7204;DHT22;3643;52.460;13.322;2023-03-23T11:00:28;13.60;99.90
7204;DHT22;3643;52.460;13.322;2023-03-23T11:03:03;13.70;99.90
7204;DHT22;3643;52.460;13.322;2023-03-23T11:05:37;13.90;99.90
7204;DHT22;3643;52.460;13.322;2023-03-23T11:08:11;14.10;99.90
7204;DHT22;3643;52.460;13.322;2023-03-23T11:10:42;14.20;99.90
7204;DHT22;3643;52.460;13.322;2023-03-23T11:13:15;14.30;99.90
7204;DHT22;3643;52.460;13.322;2023-03-23T11:15:44;14.50;99.90
7204;DHT22;3643;52.460;13.322;2023-03-23T11:18:18;14.60;99.90
7204;DHT22;3643;52.460;13.322;2023-03-23T11:20:48;14.40;99.90
7204;DHT22;3643;52.460;13.322;2023-03-23T11:23:20;14.20;99.90
7204;DHT22;3643;52.460;13.322;2023-03-23T11:25:57;14.30;99.90
7204;DHT22;3643;52.460;13.322;2023-03-23T11:28:31;14.50;99.90
7204;DHT22;3643;52.460;13.322;2023-03-23T11:31:00;14.50;99.90
7204;DHT22;3643;52.460;13.322;2023-03-23T11:33:35;14.60;99.90
7204;DHT22;3643;52.460;13.322;2023-03-23T11:36:05;14.70;99.90
7204;DHT22;3643;52.460;13.322;2023-03-23T11:38:33;14.70;99.90
7204;DHT22;3643;52.460;13.322;2023-03-23T11:41:01;14.70;99.90
7204;DHT22;3643;52.460;13.322;2023-03-23T11:43:40;14.80;99.90
7204;DHT22;3643;52.460;13.322;2023-03-23T11:46:18;15.10;99.90
7204;DHT22;3643;52.460;13.322;2023-03-23T11:48:53;15.20;99.90
7204;DHT22;3643;52.460;13.322;2023-03-23T11:51:29;15.40;99.90
7204;DHT22;3643;52.460;13.322;2023-03-23T11:54:00;15.60;99.90
7204;DHT22;3643;52.460;13.322;2023-03-23T11:56:34;15.60;99.90
7204;DHT22;3643;52.460;13.322;2023-03-23T11:59:03;15.60;99.90
7204;DHT22;3643;52.460;13.322;2023-03-23T12:01:47;15.80;99.90
7204;DHT22;3643;52.460;13.322;2023-03-23T12:04:33;15.80;99.90
7204;DHT22;3643;52.460;13.322;2023-03-23T12:07:19;15.90;99.90
7204;DHT22;3643;52.460;13.322;2023-03-23T12:09:57;15.80;99.90
7204;DHT22;3643;52.460;13.322;2023-03-23T12:12:42;16.00;99.90
7204;DHT22;3643;52.460;13.322;2023-03-23T12:15:19;16.10;99.90
7204;DHT22;3643;52.460;13.322;2023-03-23T12:17:56;16.10;99.90
7204;DHT22;3643;52.460;13.322;2023-03-23T12:20:32;16.10;99.90
7204;DHT22;3643;52.460;13.322;2023-03-23T12:23:08;16.20;99.90
7204;DHT22;3643;52.460;13.322;2023-03-23T12:25:56;16.10;99.90
7204;DHT22;3643;52.460;13.322;2023-03-23T12:28:38;15.90;99.90
7204;DHT22;3643;52.460;13.322;2023-03-23T12:31:14;16.10;99.90
7204;DHT22;3643;52.460;13.322;2023-03-23T12:33:51;15.90;99.90
7204;DHT22;3643;52.460;13.322;2023-03-23T12:36:34;15.80;99.90
7204;DHT22;3643;52.460;13.322;2023-03-23T12:39:29;16.10;99.90
7204;DHT22;3643;52.460;13.322;2023-03-23T12:42:06;16.10;99.90
7204;DHT22;3643;52.460;13.322;2023-03-23T12:44:43;16.00;99.90
7204;DHT22;3643;52.460;13.322;2023-03-23T12:47:34;15.90;99.90
7204;DHT22;3643;52.460;13.322;2023-03-23T12:50:07;15.80;99.90
7204;DHT22;3643;52.460;13.322;2023-03-23T12:52:41;15.90;99.90
7204;DHT22;3643;52.460;13.322;2023-03-23T12:55:15;15.90;99.90
7204;DHT22;3643;52.460;13.322;2023-03-23T12:57:49;15.90;99.90
7204;DHT22;3643;52.460;13.322;2023-03-23T13:00:23;15.90;99.90
7204;DHT22;3643;52.460;13.322;2023-03-23T13:02:58;16.00;99.90
7204;DHT22;3643;52.460;13.322;2023-03-23T13:05:33;16.10;99.90
7204;DHT22;3643;52.460;13.322;2023-03-23T13:08:06;16.10;99.90
7204;DHT22;3643;52.460;13.322;2023-03-23T13:10:40;16.20;99.90
7204;DHT22;3643;52.460;13.322;2023-03-23T13:13:14;16.60;99.90
7204;DHT22;3643;52.460;13.322;2023-03-23T13:15:53;16.80;99.90
7204;DHT22;3643;52.460;13.322;2023-03-23T13:18:30;16.80;99.90
7204;DHT22;3643;52.460;13.322;2023-03-23T13:21:08;17.10;99.90
7204;DHT22;3643;52.460;13.322;2023-03-23T13:23:39;17.20;99.90
7204;DHT22;3643;52.460;13.322;2023-03-23T13:26:09;17.20;99.90
7204;DHT22;3643;52.460;13.322;2023-03-23T13:28:51;17.00;99.90
7204;DHT22;3643;52.460;13.322;2023-03-23T13:31:24;16.80;99.90
7204;DHT22;3643;52.460;13.322;2023-03-23T13:34:00;16.70;99.90
7204;DHT22;3643;52.460;13.322;2023-03-23T13:36:30;16.50;99.90
7204;DHT22;3643;52.460;13.322;2023-03-23T13:39:00;16.50;99.90
7204;DHT22;3643;52.460;13.322;2023-03-23T13:41:29;16.40;99.90
7204;DHT22;3643;52.460;13.322;2023-03-23T13:44:15;16.30;99.90
7204;DHT22;3643;52.460;13.322;2023-03-23T13:46:54;16.20;99.90
7204;DHT22;3643;52.460;13.322;2023-03-23T13:49:22;16.30;99.90
7204;DHT22;3643;52.460;13.322;2023-03-23T13:52:02;16.30;99.90
7204;DHT22;3643;52.460;13.322;2023-03-23T13:54:44;16.70;99.90
7204;DHT22;3643;52.460;13.322;2023-03-23T13:57:33;16.50;99.90
7204;DHT22;3643;52.460;13.322;2023-03-23T14:02:59;16.50;99.90
7204;DHT22;3643;52.460;13.322;2023-03-23T14:05:34;16.70;99.90
7204;DHT22;3643;52.460;13.322;2023-03-23T14:08:09;16.80;99.90
7204;DHT22;3643;52.460;13.322;2023-03-23T14:10:40;16.80;99.90
7204;DHT22;3643;52.460;13.322;2023-03-23T14:13:16;16.90;99.90
7204;DHT22;3643;52.460;13.322;2023-03-23T14:15:55;17.00;99.90
7204;DHT22;3643;52.460;13.322;2023-03-23T14:18:28;16.90;99.90
7204;DHT22;3643;52.460;13.322;2023-03-23T14:20:57;16.90;99.90
7204;DHT22;3643;52.460;13.322;2023-03-23T14:23:24;16.80;99.90
7204;DHT22;3643;52.460;13.322;2023-03-23T14:25:56;16.60;99.90
7204;DHT22;3643;52.460;13.322;2023-03-23T14:28:26;16.40;99.90
7204;DHT22;3643;52.460;13.322;2023-03-23T14:30:54;16.30;99.90
7204;DHT22;3643;52.460;13.322;2023-03-23T14:33:25;16.10;99.90
7204;DHT22;3643;52.460;13.322;2023-03-23T14:35:54;16.10;99.90
7204;DHT22;3643;52.460;13.322;2023-03-23T14:38:25;15.90;99.90
7204;DHT22;3643;52.460;13.322;2023-03-23T14:41:00;15.90;99.90
7204;DHT22;3643;52.460;13.322;2023-03-23T14:43:29;15.80;99.90
7204;DHT22;3643;52.460;13.322;2023-03-23T14:46:01;15.80;99.90
7204;DHT22;3643;52.460;13.322;2023-03-23T14:48:30;15.70;99.90
7204;DHT22;3643;52.460;13.322;2023-03-23T14:50:59;15.50;99.90
7204;DHT22;3643;52.460;13.322;2023-03-23T14:53:32;15.40;99.90
7204;DHT22;3643;52.460;13.322;2023-03-23T14:56:02;15.30;99.90
7204;DHT22;3643;52.460;13.322;2023-03-23T14:58:30;15.20;99.90
7204;DHT22;3643;52.460;13.322;2023-03-23T15:00:59;15.20;99.90
7204;DHT22;3643;52.460;13.322;2023-03-23T15:03:33;15.30;99.90
7204;DHT22;3643;52.460;13.322;2023-03-23T15:06:04;15.40;99.90
7204;DHT22;3643;52.460;13.322;2023-03-23T15:08:34;15.60;99.90
7204;DHT22;3643;52.460;13.322;2023-03-23T15:11:07;15.60;99.90
7204;DHT22;3643;52.460;13.322;2023-03-23T15:13:36;15.50;99.90
7204;DHT22;3643;52.460;13.322;2023-03-23T15:16:06;15.90;99.90
7204;DHT22;3643;52.460;13.322;2023-03-23T15:18:37;15.80;99.90
7204;DHT22;3643;52.460;13.322;2023-03-23T15:21:10;16.00;99.90
7204;DHT22;3643;52.460;13.322;2023-03-23T15:23:42;16.00;99.90
7204;DHT22;3643;52.460;13.322;2023-03-23T15:26:32;16.00;99.90
7204;DHT22;3643;52.460;13.322;2023-03-23T15:29:12;16.00;99.90
7204;DHT22;3643;52.460;13.322;2023-03-23T15:31:41;16.00;99.90
7204;DHT22;3643;52.460;13.322;2023-03-23T15:34:16;16.00;99.90
7204;DHT22;3643;52.460;13.322;2023-03-23T15:36:43;16.00;99.90
7204;DHT22;3643;52.460;13.322;2023-03-23T15:39:12;16.00;99.90
7204;DHT22;3643;52.460;13.322;2023-03-23T15:41:47;16.00;99.90
7204;DHT22;3643;52.460;13.322;2023-03-23T15:44:28;15.90;99.90
7204;DHT22;3643;52.460;13.322;2023-03-23T15:47:12;15.90;99.90
7204;DHT22;3643;52.460;13.322;2023-03-23T15:49:43;15.80;99.90
7204;DHT22;3643;52.460;13.322;2023-03-23T15:52:12;15.80;99.90
7204;DHT22;3643;52.460;13.322;2023-03-23T15:54:47;15.80;99.90
7204;DHT22;3643;52.460;13.322;2023-03-23T15:57:14;15.80;99.90
7204;DHT22;3643;52.460;13.322;2023-03-23T15:59:42;15.70;99.90
7204;DHT22;3643;52.460;13.322;2023-03-23T16:02:18;15.70;99.90
7204;DHT22;3643;52.460;13.322;2023-03-23T16:04:49;15.80;99.90
7204;DHT22;3643;52.460;13.322;2023-03-23T16:07:21;15.80;99.90
7204;DHT22;3643;52.460;13.322;2023-03-23T16:09:50;15.80;99.90
7204;DHT22;3643;52.460;13.322;2023-03-23T16:12:18;15.70;99.90
7204;DHT22;3643;52.460;13.322;2023-03-23T16:14:47;15.70;99.90
7204;DHT22;3643;52.460;13.322;2023-03-23T16:17:17;15.60;99.90
7204;DHT22;3643;52.460;13.322;2023-03-23T16:19:46;15.60;99.90
7204;DHT22;3643;52.460;13.322;2023-03-23T16:22:15;15.60;99.90